Hooversville, Pennsylvania
Current Conditions -  °F | °C
As of 4:35 PM on Friday 28 Nov 2014 (Local Time) from K2G9 Reporting Station
Scattered Clouds Scattered Clouds  
Wind Chill: 14°   Ceiling: Unl
Heat Index: 21°   Visibility: 10mi
Dew Point: 12°   Wind: 6mph
Humidity: 68%   Direction: 270°W
Pressure: 30.17"   Gusts: NA
Location:  40.15°N, 78.91°W
Report Text: K2G9 282135Z AUTO 27005KT 10SM SCT028 M06/M11 A3017 RMK AO2
Loading
Personal Weather Stations






























Interactive Weather Map New forecast layout! Learn more

10-Day Weather Forecast

Advertisements
Track Severe Weather on mobile